Pacific Jewel — MPRZ — position and weather

sailwx.info

Track history (hours):
 
Tides and Currents Weather Stations Pressure Air Temp Water Temp Dewpoint Dewpoint Depression Visibility Wind Speed Wind Dir Waves Ship Positions

Pacific Jewel

Last reported at 2018-Feb-22 15:00 UTC. Time now 2018-Feb-23 12:30 UTC.
Position S 43°30' E 147°54'.

Length 246 m; draft 8.5 m.

Type: Passenger vessel. MMSI: 235051998.

Wind from 030 at 12 knots

Barometer 1013.5 mb
Air temperature 16.0 ° C
Visibility: greater than 10.8 NM
Dewpoint 14.3 ° C
Water temperature 19.0 ° C

Date/timePositionNaut miles runAvg speedWind from/ knotsBaromVisibWave heightAir tempDewpointWater temp
2018-Feb-22 15:00S 43°30' E 147°54'21 1.0 030 / 121013.510.8 16.014.319.0
2018-Feb-21 18:05S 43°12' E 147°38'3110.1
2018-Feb-21 15:00S 42°54' E 148°12'13810.6 240 / 51017.710.8 18.012.721.0
2018-Feb-21 02:00S 40°36' E 148°12'757.6 050 / 121018.810.8 18.012.721.0
2018-Feb-21 01:52S 40°38' E 148°03'411.2
2018-Feb-21 01:30S 40°37' E 147°58'612.1
2018-Feb-21 01:00S 40°36' E 147°50'713.2
2018-Feb-21 00:30S 40°34' E 147°42'713.5
2018-Feb-21 00:00S 40°29' E 147°35'713.9
2018-Feb-20 23:30S 40°25' E 147°28'713.9
2018-Feb-20 23:00S 40°21' E 147°21'713.7
2018-Feb-20 22:30S 40°16' E 147°14'713.9
2018-Feb-20 22:00S 40°12' E 147°07'714.0
2018-Feb-20 21:30S 40°07' E 147°00'713.4
2018-Feb-20 21:00S 40°03' E 146°53'713.8
2018-Feb-20 20:28S 39°58' E 146°46'511.2
2018-Feb-20 20:00S 39°54' E 146°42'618.0 070 / 301017.210.8 17.511.121.0
2018-Feb-20 19:38S 39°51' E 146°34'213.7
2018-Feb-20 19:29S 39°50' E 146°32'713.5
2018-Feb-20 18:59S 39°46' E 146°26'713.2
2018-Feb-20 18:29S 39°41' E 146°19'1530.9
2018-Feb-20 18:00S 39°30' E 146°06'8229.0 050 / 381013.310.8 17.013.521.0
2018-Feb-20 17:57S 39°37' E 146°12'613.0
2018-Feb-20 17:30S 39°33' E 146°06'612.8
2018-Feb-20 17:00S 39°29' E 145°60'612.6
2018-Feb-20 16:31S 39°25' E 145°53'712.6
2018-Feb-20 15:56S 39°21' E 145°46'2613.5
2018-Feb-20 14:00S 39°06' E 145°18'77 4.9 070 / 421013.110.8 18.012.723.0
2018-Feb-19 22:04S 37°51' E 144°56'5 5.7
2018-Feb-19 21:11S 37°56' E 144°56'413.0
2018-Feb-19 20:55S 37°59' E 144°56'42 7.1
2018-Feb-19 15:00S 38°36' E 144°30'19110.5 110 / 101020.510.8 18.012.721.0
2018-Feb-18 20:44S 38°30' E 148°34'414.8
2018-Feb-18 20:29S 38°27' E 148°38'714.3
2018-Feb-18 19:58S 38°23' E 148°45'714.3
2018-Feb-18 19:29S 38°19' E 148°53'714.1
2018-Feb-18 19:00S 38°16' E 149°00'6310.0
2018-Feb-18 12:43S 37°44' E 150°10'0 0.7
2018-Feb-18 12:28S 37°45' E 150°10'0 0.5
2018-Feb-18 12:00S 37°45' E 150°10'0 0.2
2018-Feb-18 11:08S 37°45' E 150°10'0 0.5
2018-Feb-18 10:49S 37°45' E 150°10'1 1.6
2018-Feb-18 10:23S 37°44' E 150°10'2611.0
2018-Feb-18 08:00S 37°18' E 150°06'37 1.3 010 / 71012.210.8 23.019.922.0
2018-Feb-17 04:47S 37°53' E 149°54'413.7
2018-Feb-17 04:28S 37°56' E 149°50'1313.7
2018-Feb-17 03:30S 38°02' E 149°35'918.2
2018-Feb-17 03:00S 38°00' E 149°24'7434.9 270 / 131013.110.8 19.013.823.0
2018-Feb-17 02:58S 38°07' E 149°28'713.2
2018-Feb-17 02:25S 38°11' E 149°21'613.9
2018-Feb-17 01:59S 38°15' E 149°15'713.5
2018-Feb-17 01:30S 38°18' E 149°07'813.7
2018-Feb-17 00:56S 38°22' E 148°59'713.6
2018-Feb-17 00:23S 38°26' E 148°51'613.8
2018-Feb-16 23:58S 38°30' E 148°45'613.6
2018-Feb-16 23:30S 38°33' E 148°38'714.6
2018-Feb-16 23:00S 38°30' E 148°30'8145.4 330 / 151013.410.8 18.011.620.0
2018-Feb-16 22:56S 38°38' E 148°30'1414.0
2018-Feb-16 21:58S 38°46' E 148°16'714.0
2018-Feb-16 21:26S 38°48' E 148°07'2714.7
2018-Feb-16 19:36S 38°58' E 147°35'214.7
2018-Feb-16 19:28S 38°58' E 147°33'1015.1
2018-Feb-16 18:48S 39°02' E 147°20'915.0
2018-Feb-16 18:13S 39°05' E 147°10'315.1
2018-Feb-16 18:00S 39°06' E 147°06'5112.8
2018-Feb-16 14:00S 39°12' E 146°00'8910.8 250 / 121013.310.8 17.011.523.0
2018-Feb-16 05:44S 37°58' E 144°55'7 0.7
2018-Feb-15 18:43S 37°51' E 144°56'2 7.3
2018-Feb-15 18:25S 37°53' E 144°56'613.8
2018-Feb-15 17:58S 37°59' E 144°56'37 9.4
2018-Feb-15 14:00S 38°36' E 144°48'13615.7 210 / 351009.810.8 17.013.520.0
2018-Feb-15 05:18S 40°03' E 147°04'411.7
2018-Feb-15 05:00S 40°05' E 147°08'611.7
2018-Feb-15 04:30S 40°08' E 147°14'611.9
2018-Feb-15 04:00S 40°12' E 147°20'611.9
2018-Feb-15 03:30S 40°15' E 147°27'611.8
2018-Feb-15 02:59S 40°19' E 147°33'611.5
2018-Feb-15 02:29S 40°22' E 147°39'612.9
2018-Feb-15 02:00S 40°26' E 147°45'815.1
2018-Feb-15 01:28S 40°31' E 147°54'713.9
2018-Feb-15 01:00S 40°35' E 148°01'16014.6
2018-Feb-14 14:00S 43°15' E 147°42'3 0.2
2018-Feb-14 00:20S 43°13' E 147°39'17118.3
2018-Feb-13 15:00S 42°48' E 151°30'10317.2 030 / 291007.310.8 18.014.620.0
2018-Feb-13 09:00S 42°30' E 153°48'14019.9 040 / 211013.310.8 19.0 9.620.0
2018-Feb-13 02:00S 42°06' E 156°54'15417.1 180 / 101014.210.8 17.011.520.0
2018-Feb-12 17:00S 41°42' E 160°18'   260 / 151011.210.8 17.011.520.0
Track history (hours):
 
Tides and Currents Weather Stations Pressure Air Temp Water Temp Dewpoint Dewpoint Depression Visibility Wind Speed Wind Dir Waves Ship Positions

Pacific Jewel

Last reported at 2018-Feb-22 15:00 UTC. Time now 2018-Feb-23 12:30 UTC.
Position S 43°30' E 147°54'.

Length 246 m; draft 8.5 m.

Type: Passenger vessel. MMSI: 235051998.

Wind from 030 at 12 knots

Barometer 1013.5 mb
Air temperature 16.0 ° C
Visibility: greater than 10.8 NM
Dewpoint 14.3 ° C
Water temperature 19.0 ° C

Date/timePositionNaut miles runAvg speedWind from/ knotsBaromVisibWave heightAir tempDewpointWater temp
2018-Feb-22 15:00S 43°30' E 147°54'21 1.0 030 / 121013.510.8 16.014.319.0
2018-Feb-21 18:05S 43°12' E 147°38'3110.1
2018-Feb-21 15:00S 42°54' E 148°12'13810.6 240 / 51017.710.8 18.012.721.0
2018-Feb-21 02:00S 40°36' E 148°12'757.6 050 / 121018.810.8 18.012.721.0
2018-Feb-21 01:52S 40°38' E 148°03'411.2
2018-Feb-21 01:30S 40°37' E 147°58'612.1
2018-Feb-21 01:00S 40°36' E 147°50'713.2
2018-Feb-21 00:30S 40°34' E 147°42'713.5
2018-Feb-21 00:00S 40°29' E 147°35'713.9
2018-Feb-20 23:30S 40°25' E 147°28'713.9
2018-Feb-20 23:00S 40°21' E 147°21'713.7
2018-Feb-20 22:30S 40°16' E 147°14'713.9
2018-Feb-20 22:00S 40°12' E 147°07'714.0
2018-Feb-20 21:30S 40°07' E 147°00'713.4
2018-Feb-20 21:00S 40°03' E 146°53'713.8
2018-Feb-20 20:28S 39°58' E 146°46'511.2
2018-Feb-20 20:00S 39°54' E 146°42'618.0 070 / 301017.210.8 17.511.121.0
2018-Feb-20 19:38S 39°51' E 146°34'213.7
2018-Feb-20 19:29S 39°50' E 146°32'713.5
2018-Feb-20 18:59S 39°46' E 146°26'713.2
2018-Feb-20 18:29S 39°41' E 146°19'1530.9
2018-Feb-20 18:00S 39°30' E 146°06'8229.0 050 / 381013.310.8 17.013.521.0
2018-Feb-20 17:57S 39°37' E 146°12'613.0
2018-Feb-20 17:30S 39°33' E 146°06'612.8
2018-Feb-20 17:00S 39°29' E 145°60'612.6
2018-Feb-20 16:31S 39°25' E 145°53'712.6
2018-Feb-20 15:56S 39°21' E 145°46'2613.5
2018-Feb-20 14:00S 39°06' E 145°18'77 4.9 070 / 421013.110.8 18.012.723.0
2018-Feb-19 22:04S 37°51' E 144°56'5 5.7
2018-Feb-19 21:11S 37°56' E 144°56'413.0
2018-Feb-19 20:55S 37°59' E 144°56'42 7.1
2018-Feb-19 15:00S 38°36' E 144°30'19110.5 110 / 101020.510.8 18.012.721.0
2018-Feb-18 20:44S 38°30' E 148°34'414.8
2018-Feb-18 20:29S 38°27' E 148°38'714.3
2018-Feb-18 19:58S 38°23' E 148°45'714.3
2018-Feb-18 19:29S 38°19' E 148°53'714.1
2018-Feb-18 19:00S 38°16' E 149°00'6310.0
2018-Feb-18 12:43S 37°44' E 150°10'0 0.7
2018-Feb-18 12:28S 37°45' E 150°10'0 0.5
2018-Feb-18 12:00S 37°45' E 150°10'0 0.2
2018-Feb-18 11:08S 37°45' E 150°10'0 0.5
2018-Feb-18 10:49S 37°45' E 150°10'1 1.6
2018-Feb-18 10:23S 37°44' E 150°10'2611.0
2018-Feb-18 08:00S 37°18' E 150°06'37 1.3 010 / 71012.210.8 23.019.922.0
2018-Feb-17 04:47S 37°53' E 149°54'413.7
2018-Feb-17 04:28S 37°56' E 149°50'1313.7
2018-Feb-17 03:30S 38°02' E 149°35'918.2
2018-Feb-17 03:00S 38°00' E 149°24'7434.9 270 / 131013.110.8 19.013.823.0
2018-Feb-17 02:58S 38°07' E 149°28'713.2
2018-Feb-17 02:25S 38°11' E 149°21'613.9
2018-Feb-17 01:59S 38°15' E 149°15'713.5
2018-Feb-17 01:30S 38°18' E 149°07'813.7
2018-Feb-17 00:56S 38°22' E 148°59'713.6
2018-Feb-17 00:23S 38°26' E 148°51'613.8
2018-Feb-16 23:58S 38°30' E 148°45'613.6
2018-Feb-16 23:30S 38°33' E 148°38'714.6
2018-Feb-16 23:00S 38°30' E 148°30'8145.4 330 / 151013.410.8 18.011.620.0
2018-Feb-16 22:56S 38°38' E 148°30'1414.0
2018-Feb-16 21:58S 38°46' E 148°16'714.0
2018-Feb-16 21:26S 38°48' E 148°07'2714.7
2018-Feb-16 19:36S 38°58' E 147°35'214.7
2018-Feb-16 19:28S 38°58' E 147°33'1015.1
2018-Feb-16 18:48S 39°02' E 147°20'915.0
2018-Feb-16 18:13S 39°05' E 147°10'315.1
2018-Feb-16 18:00S 39°06' E 147°06'5112.8
2018-Feb-16 14:00S 39°12' E 146°00'8910.8 250 / 121013.310.8 17.011.523.0
2018-Feb-16 05:44S 37°58' E 144°55'7 0.7
2018-Feb-15 18:43S 37°51' E 144°56'2 7.3
2018-Feb-15 18:25S 37°53' E 144°56'613.8
2018-Feb-15 17:58S 37°59' E 144°56'37 9.4
2018-Feb-15 14:00S 38°36' E 144°48'13615.7 210 / 351009.810.8 17.013.520.0
2018-Feb-15 05:18S 40°03' E 147°04'411.7
2018-Feb-15 05:00S 40°05' E 147°08'611.7
2018-Feb-15 04:30S 40°08' E 147°14'611.9
2018-Feb-15 04:00S 40°12' E 147°20'611.9
2018-Feb-15 03:30S 40°15' E 147°27'611.8
2018-Feb-15 02:59S 40°19' E 147°33'611.5
2018-Feb-15 02:29S 40°22' E 147°39'612.9
2018-Feb-15 02:00S 40°26' E 147°45'815.1
2018-Feb-15 01:28S 40°31' E 147°54'713.9
2018-Feb-15 01:00S 40°35' E 148°01'16014.6
2018-Feb-14 14:00S 43°15' E 147°42'3 0.2
2018-Feb-14 00:20S 43°13' E 147°39'17118.3
2018-Feb-13 15:00S 42°48' E 151°30'10317.2 030 / 291007.310.8 18.014.620.0
2018-Feb-13 09:00S 42°30' E 153°48'14019.9 040 / 211013.310.8 19.0 9.620.0
2018-Feb-13 02:00S 42°06' E 156°54'15417.1 180 / 101014.210.8 17.011.520.0
2018-Feb-12 17:00S 41°42' E 160°18'   260 / 151011.210.8 17.011.520.0

Dump ship's entire track history